createdAt,value
2024-04-18T00:01:26.645Z,67.00
2024-04-18T00:03:53.673Z,65.07
2024-04-18T00:06:20.650Z,62.10
2024-04-18T00:08:47.481Z,60.72
2024-04-18T00:11:16.126Z,60.63
2024-04-18T00:13:43.011Z,62.45
2024-04-18T00:16:09.800Z,59.90
2024-04-18T00:18:36.719Z,59.00
2024-04-18T00:21:03.735Z,57.60
2024-04-18T00:23:30.561Z,57.50
2024-04-18T00:25:57.375Z,57.05
2024-04-18T00:28:24.214Z,57.25
2024-04-18T00:30:51.095Z,58.08
2024-04-18T00:33:17.939Z,60.35
2024-04-18T00:35:44.778Z,60.13
2024-04-18T00:38:15.279Z,60.25
2024-04-18T00:40:43.359Z,63.38
2024-04-18T00:43:10.213Z,65.60
2024-04-18T00:45:37.799Z,65.43
2024-04-18T00:48:05.450Z,66.18
2024-04-18T00:50:32.347Z,67.55
2024-04-18T00:53:00.259Z,69.88
2024-04-18T00:55:29.858Z,70.40
2024-04-18T00:57:58.004Z,69.15
2024-04-18T01:00:25.705Z,67.97
2024-04-18T01:02:52.640Z,68.95
2024-04-18T01:05:19.641Z,67.28
2024-04-18T01:07:46.512Z,69.45
2024-04-18T01:10:13.407Z,71.05
2024-04-18T01:12:40.215Z,72.35
2024-04-18T01:15:07.309Z,70.85
2024-04-18T01:17:34.222Z,68.55
2024-04-18T01:20:01.493Z,68.18
2024-04-18T01:22:28.682Z,68.20
2024-04-18T01:24:55.692Z,67.18
2024-04-18T01:27:22.557Z,68.60
2024-04-18T01:29:49.387Z,67.13
2024-04-18T01:32:16.231Z,70.70
2024-04-18T01:34:43.091Z,69.43
2024-04-18T01:37:12.373Z,69.32
2024-04-18T01:39:39.326Z,69.70
2024-04-18T01:42:06.228Z,68.60
2024-04-18T01:44:33.051Z,69.63
2024-04-18T01:46:59.887Z,68.38
2024-04-18T01:49:26.733Z,67.72
2024-04-18T01:51:53.672Z,66.60
2024-04-18T01:54:20.549Z,66.45
2024-04-18T01:56:47.505Z,66.15
2024-04-18T01:59:14.348Z,67.40
2024-04-18T02:01:41.199Z,67.88
2024-04-18T02:04:08.241Z,69.40
2024-04-18T02:06:35.120Z,68.97
2024-04-18T02:09:01.947Z,70.68
2024-04-18T02:11:28.763Z,71.38
2024-04-18T02:13:55.565Z,69.85
2024-04-18T02:16:22.391Z,75.35
2024-04-18T02:18:49.405Z,81.85
2024-04-18T02:21:16.501Z,80.85
2024-04-18T02:23:43.309Z,81.60
2024-04-18T02:26:10.204Z,78.85
2024-04-18T02:28:38.258Z,81.28
2024-04-18T02:31:05.842Z,85.25
2024-04-18T02:33:33.266Z,88.35
2024-04-18T02:36:00.230Z,91.90
2024-04-18T02:38:27.691Z,90.53
2024-04-18T02:41:08.820Z,88.15
2024-04-18T02:43:35.798Z,92.28
2024-04-18T02:46:02.672Z,89.43
2024-04-18T02:48:29.693Z,89.50
2024-04-18T02:50:56.608Z,91.45
2024-04-18T02:53:23.459Z,89.63
2024-04-18T02:55:50.352Z,89.60
2024-04-18T02:58:17.398Z,89.65
2024-04-18T03:00:44.457Z,88.00
2024-04-18T03:03:11.354Z,93.60
2024-04-18T03:05:38.189Z,93.35
2024-04-18T03:08:05.439Z,93.65
2024-04-18T03:10:32.280Z,94.38
2024-04-18T03:12:59.116Z,90.57
2024-04-18T03:15:26.030Z,91.80
2024-04-18T03:17:54.626Z,97.93
2024-04-18T03:20:22.100Z,92.80
2024-04-18T03:22:49.406Z,91.40
2024-04-18T03:25:16.885Z,95.75
2024-04-18T03:27:43.748Z,90.05
2024-04-18T03:30:10.929Z,93.18
2024-04-18T03:32:38.393Z,97.25
2024-04-18T03:35:05.885Z,97.60
2024-04-18T03:37:34.388Z,97.35
2024-04-18T03:40:02.425Z,94.80
2024-04-18T03:42:29.296Z,99.05
2024-04-18T03:44:56.230Z,93.97
2024-04-18T03:47:23.227Z,93.85
2024-04-18T03:49:50.222Z,96.05
2024-04-18T03:52:17.088Z,91.78
2024-04-18T03:54:55.983Z,97.93
2024-04-18T03:57:28.724Z,102.50
2024-04-18T03:59:55.602Z,91.82
2024-04-18T04:02:22.457Z,91.43
2024-04-18T04:04:51.432Z,95.13
2024-04-18T04:07:18.533Z,98.00
2024-04-18T04:09:45.479Z,100.20
2024-04-18T04:12:12.534Z,102.72
2024-04-18T04:14:39.394Z,99.03
2024-04-18T04:17:06.585Z,102.65
2024-04-18T04:19:33.483Z,105.18
2024-04-18T04:22:00.734Z,110.38
2024-04-18T04:24:27.638Z,104.28
2024-04-18T04:26:54.653Z,109.00
2024-04-18T04:29:21.979Z,112.20
2024-04-18T04:31:48.944Z,100.25
2024-04-18T04:34:15.867Z,103.68
2024-04-18T04:36:42.769Z,96.80
2024-04-18T04:39:10.066Z,91.75
2024-04-18T04:41:36.883Z,101.95
2024-04-18T04:44:03.659Z,99.85
2024-04-18T04:46:30.744Z,96.97
2024-04-18T04:48:57.722Z,93.32
2024-04-18T04:51:24.643Z,117.93
2024-04-18T04:53:54.205Z,114.15
2024-04-18T04:56:21.460Z,104.53
2024-04-18T04:58:48.516Z,103.97
2024-04-18T05:01:15.465Z,105.72
2024-04-18T05:03:42.431Z,101.40
2024-04-18T05:06:09.281Z,111.15
2024-04-18T05:08:36.153Z,102.95
2024-04-18T05:11:03.414Z,105.35
2024-04-18T05:13:30.295Z,109.82
2024-04-18T05:15:57.179Z,112.32
2024-04-18T05:18:24.434Z,110.82
2024-04-18T05:20:51.281Z,108.10
2024-04-18T05:23:18.385Z,109.63
2024-04-18T05:25:45.201Z,115.95
2024-04-18T05:28:14.316Z,117.10
2024-04-18T05:31:02.586Z,126.63
2024-04-18T05:33:30.461Z,113.10
2024-04-18T05:35:57.863Z,118.53
2024-04-18T05:38:24.966Z,116.45
2024-04-18T05:40:51.995Z,119.82
2024-04-18T05:43:19.270Z,122.68
2024-04-18T05:45:47.164Z,122.65
2024-04-18T05:48:14.133Z,115.13
2024-04-18T05:50:42.336Z,110.18
2024-04-18T05:53:09.232Z,111.55
2024-04-18T05:55:36.197Z,112.65
2024-04-18T05:58:03.433Z,105.82
2024-04-18T06:00:30.332Z,100.88
2024-04-18T06:02:57.278Z,91.10
2024-04-18T06:05:24.129Z,91.78
2024-04-18T06:07:50.955Z,89.07
2024-04-18T06:10:18.682Z,87.38
2024-04-18T06:12:45.580Z,91.70
2024-04-18T06:15:12.389Z,88.40
2024-04-18T06:17:39.248Z,85.28
2024-04-18T06:20:06.852Z,81.05
2024-04-18T06:22:33.822Z,82.90
2024-04-18T06:25:00.798Z,84.90
2024-04-18T06:27:27.749Z,105.15
2024-04-18T06:29:54.653Z,98.05
2024-04-18T06:32:22.082Z,87.25
2024-04-18T06:34:48.954Z,90.68
2024-04-18T06:37:16.056Z,88.72
2024-04-18T06:39:43.126Z,94.85
2024-04-18T06:42:09.975Z,96.18
2024-04-18T06:44:37.439Z,93.47
2024-04-18T06:47:04.519Z,89.82
2024-04-18T06:49:31.391Z,90.85
2024-04-18T06:51:58.297Z,96.03
2024-04-18T06:54:25.815Z,99.85
2024-04-18T06:56:52.744Z,97.90
2024-04-18T06:59:20.576Z,96.95
2024-04-18T07:01:48.195Z,96.93
2024-04-18T07:04:15.170Z,90.88
2024-04-18T07:06:42.123Z,88.05
2024-04-18T07:09:08.994Z,86.97
2024-04-18T07:11:35.891Z,81.80
2024-04-18T07:14:02.885Z,78.07
2024-04-18T07:16:30.093Z,74.95
2024-04-18T07:18:57.266Z,82.10
2024-04-18T07:21:24.348Z,88.40
2024-04-18T07:23:51.215Z,87.68
2024-04-18T07:26:18.650Z,92.63
2024-04-18T07:28:45.454Z,89.78
2024-04-18T07:31:12.323Z,88.97
2024-04-18T07:33:39.317Z,88.78
2024-04-18T07:36:06.380Z,85.63
2024-04-18T07:38:33.823Z,81.18
2024-04-18T07:41:00.709Z,77.68
2024-04-18T07:43:27.600Z,81.78
2024-04-18T07:45:54.638Z,76.30
2024-04-18T07:48:21.663Z,70.20
2024-04-18T07:50:49.801Z,71.32
2024-04-18T07:53:16.678Z,74.35
2024-04-18T07:55:43.583Z,71.25
2024-04-18T07:58:11.222Z,70.20
2024-04-18T08:00:39.636Z,70.18
2024-04-18T08:03:08.918Z,77.93
2024-04-18T08:05:39.112Z,77.07
2024-04-18T08:08:10.395Z,74.85
2024-04-18T08:10:52.911Z,67.05
2024-04-18T08:13:30.260Z,60.85
2024-04-18T08:16:02.749Z,64.38
2024-04-18T08:18:30.067Z,66.97
2024-04-18T08:21:00.434Z,68.85
2024-04-18T08:23:27.585Z,70.72
2024-04-18T08:25:54.492Z,64.78
2024-04-18T08:28:21.474Z,57.22
2024-04-18T08:30:48.360Z,52.33
2024-04-18T08:33:15.359Z,53.22
2024-04-18T08:35:45.098Z,46.22
2024-04-18T08:38:13.449Z,50.08
2024-04-18T08:40:45.610Z,47.28
2024-04-18T08:43:13.427Z,41.75
2024-04-18T08:45:42.182Z,33.50
2024-04-18T08:48:11.908Z,30.58
2024-04-18T08:50:42.147Z,27.45
2024-04-18T08:53:10.997Z,24.37
2024-04-18T08:55:40.403Z,22.90
2024-04-18T08:58:10.541Z,19.90
2024-04-18T09:00:43.631Z,21.73
2024-04-18T09:03:12.115Z,21.58
2024-04-18T09:05:41.662Z,26.23
2024-04-18T09:08:10.917Z,26.63
2024-04-18T09:10:38.000Z,37.83
2024-04-18T09:13:07.491Z,43.20
2024-04-18T09:15:34.766Z,43.75
2024-04-18T09:18:10.958Z,37.08
2024-04-18T09:20:39.712Z,32.00
2024-04-18T09:23:07.568Z,25.95
2024-04-18T09:25:36.377Z,25.77
2024-04-18T09:28:05.850Z,23.95
2024-04-18T09:30:32.742Z,28.33
2024-04-18T09:33:05.264Z,27.08
2024-04-18T09:35:35.838Z,27.58
2024-04-18T09:38:09.294Z,27.40
2024-04-18T09:40:44.353Z,28.98
2024-04-18T09:43:31.692Z,25.15
2024-04-18T09:46:04.227Z,21.98
2024-04-18T09:48:32.394Z,22.42
2024-04-18T09:51:00.822Z,22.13
2024-04-18T09:53:29.306Z,21.75
2024-04-18T09:55:58.054Z,21.58
2024-04-18T09:58:27.530Z,20.67
2024-04-18T10:00:56.162Z,20.48
2024-04-18T10:03:24.200Z,20.92
2024-04-18T10:05:54.603Z,20.90
2024-04-18T10:08:31.193Z,21.98
2024-04-18T10:10:58.783Z,23.02
2024-04-18T10:13:26.697Z,24.58
2024-04-18T10:16:13.856Z,23.75
2024-04-18T10:18:41.815Z,29.58
2024-04-18T10:21:33.458Z,34.75
2024-04-18T10:24:11.087Z,38.35
2024-04-18T10:26:38.978Z,45.03
2024-04-18T10:29:21.363Z,47.70
2024-04-18T10:31:48.234Z,48.22
2024-04-18T10:34:15.549Z,49.92
2024-04-18T10:36:44.613Z,58.72
2024-04-18T10:39:27.056Z,57.53
2024-04-18T10:42:00.554Z,63.53
2024-04-18T10:44:27.971Z,61.97
2024-04-18T10:46:56.218Z,61.78
2024-04-18T10:49:23.971Z,68.57
2024-04-18T10:51:51.449Z,52.53
2024-04-18T10:54:18.763Z,51.63
2024-04-18T10:56:45.825Z,50.78
2024-04-18T10:59:12.915Z,43.75
2024-04-18T11:01:40.743Z,46.53
2024-04-18T11:04:07.765Z,49.65
2024-04-18T11:06:38.074Z,46.22
2024-04-18T11:09:05.096Z,52.00
2024-04-18T11:11:34.720Z,56.95
2024-04-18T11:14:02.134Z,51.20
2024-04-18T11:16:28.962Z,57.38
2024-04-18T11:18:56.381Z,56.20
2024-04-18T11:21:25.596Z,50.38
2024-04-18T11:23:53.247Z,38.70
2024-04-18T11:26:20.776Z,41.33
2024-04-18T11:28:56.261Z,36.63
2024-04-18T11:31:23.461Z,49.00
2024-04-18T11:33:50.476Z,49.38
2024-04-18T11:36:18.036Z,41.28
2024-04-18T11:38:44.953Z,45.25
2024-04-18T11:41:12.369Z,47.35
2024-04-18T11:43:39.288Z,47.20
2024-04-18T11:46:06.213Z,38.90
2024-04-18T11:48:33.267Z,39.55
2024-04-18T11:51:00.229Z,36.60
2024-04-18T11:53:27.035Z,28.45
2024-04-18T11:55:55.053Z,24.42
2024-04-18T11:58:23.085Z,22.15
2024-04-18T12:00:49.916Z,20.65
2024-04-18T12:03:16.860Z,20.80
2024-04-18T12:05:43.792Z,19.50
2024-04-18T12:08:10.590Z,18.70
2024-04-18T12:10:37.448Z,18.30
2024-04-18T12:13:04.687Z,18.02
2024-04-18T12:15:34.457Z,18.13
2024-04-18T12:18:03.348Z,17.42
2024-04-18T12:20:30.394Z,17.50
2024-04-18T12:22:57.349Z,17.30
2024-04-18T12:25:24.281Z,16.70
2024-04-18T12:27:51.251Z,16.88
2024-04-18T12:30:18.160Z,16.92
2024-04-18T12:32:45.051Z,16.02
2024-04-18T12:35:11.992Z,15.27
2024-04-18T12:37:38.855Z,13.98
2024-04-18T12:40:06.605Z,14.27
2024-04-18T12:42:35.240Z,14.43
2024-04-18T12:45:02.384Z,14.40
2024-04-18T12:47:29.455Z,14.88
2024-04-18T12:49:56.433Z,14.18
2024-04-18T12:52:23.417Z,12.82
2024-04-18T12:54:50.349Z,11.10
2024-04-18T12:57:17.217Z,11.57
2024-04-18T12:59:44.264Z,11.98
2024-04-18T13:02:13.139Z,11.27
2024-04-18T13:04:40.090Z,10.85
2024-04-18T13:07:07.240Z,11.10
2024-04-18T13:09:34.552Z,11.05
2024-04-18T13:12:05.939Z,9.50
2024-04-18T13:14:32.915Z,10.07
2024-04-18T13:17:01.435Z,9.98
2024-04-18T13:19:28.238Z,9.85
2024-04-18T13:21:57.429Z,9.15
2024-04-18T13:24:25.767Z,10.05
2024-04-18T13:26:53.711Z,9.73
2024-04-18T13:29:21.402Z,9.80
2024-04-18T13:31:48.715Z,10.20
2024-04-18T13:34:15.582Z,10.15
2024-04-18T13:36:42.582Z,9.57
2024-04-18T13:39:10.075Z,9.55
2024-04-18T13:41:42.022Z,10.23
2024-04-18T13:44:08.835Z,11.45
2024-04-18T13:46:35.831Z,10.52
2024-04-18T13:49:02.887Z,11.23
2024-04-18T13:51:30.093Z,11.55
2024-04-18T13:53:57.476Z,11.05
2024-04-18T13:56:27.632Z,11.07
2024-04-18T13:58:54.470Z,10.77
2024-04-18T14:01:21.401Z,11.65
2024-04-18T14:03:48.301Z,11.73
2024-04-18T14:06:15.240Z,11.35
2024-04-18T14:08:42.345Z,10.20
2024-04-18T14:11:09.353Z,10.80
2024-04-18T14:13:36.187Z,10.68
2024-04-18T14:16:21.864Z,11.80
2024-04-18T14:18:52.094Z,13.13
2024-04-18T14:21:20.012Z,23.95
2024-04-18T14:23:46.907Z,21.05
2024-04-18T14:26:13.769Z,27.85
2024-04-18T14:28:40.593Z,26.42
2024-04-18T14:31:07.457Z,41.58
2024-04-18T14:33:35.040Z,53.38
2024-04-18T14:36:02.218Z,56.55
2024-04-18T14:38:29.832Z,53.13
2024-04-18T14:41:05.572Z,60.47
2024-04-18T14:43:38.093Z,66.25
2024-04-18T14:46:05.248Z,55.50
2024-04-18T14:48:34.738Z,75.75
2024-04-18T14:51:01.832Z,79.40
2024-04-18T14:53:28.703Z,86.30
2024-04-18T14:55:55.751Z,83.85
2024-04-18T14:58:22.738Z,91.68
2024-04-18T15:00:52.248Z,91.43
2024-04-18T15:03:19.867Z,79.10
2024-04-18T15:05:54.458Z,92.90
2024-04-18T15:08:21.613Z,99.93
2024-04-18T15:10:48.625Z,93.80
2024-04-18T15:13:15.595Z,89.80
2024-04-18T15:15:42.920Z,95.88
2024-04-18T15:18:10.033Z,84.53
2024-04-18T15:20:37.006Z,85.47
2024-04-18T15:23:04.199Z,83.03
2024-04-18T15:25:31.069Z,85.28
2024-04-18T15:27:58.060Z,88.95
2024-04-18T15:30:25.048Z,91.32
2024-04-18T15:32:52.486Z,97.00
2024-04-18T15:35:19.304Z,88.75
2024-04-18T15:37:46.158Z,70.50
2024-04-18T15:40:15.903Z,63.15
2024-04-18T15:42:44.474Z,50.80
2024-04-18T15:45:11.411Z,57.63
2024-04-18T15:47:38.541Z,55.05
2024-04-18T15:50:05.709Z,46.15
2024-04-18T15:52:34.240Z,53.97
2024-04-18T15:55:09.038Z,53.30
2024-04-18T15:57:42.910Z,46.58
2024-04-18T16:00:11.151Z,43.38
2024-04-18T16:02:38.303Z,32.58
2024-04-18T16:05:05.712Z,28.13
2024-04-18T16:07:32.614Z,28.67
2024-04-18T16:09:59.994Z,25.67
2024-04-18T16:12:27.428Z,22.58
2024-04-18T16:14:54.541Z,22.52
2024-04-18T16:17:21.520Z,26.30
2024-04-18T16:19:49.636Z,26.40
2024-04-18T16:22:16.818Z,47.38
2024-04-18T16:24:43.807Z,61.05
2024-04-18T16:27:10.756Z,152.70
2024-04-18T16:29:37.692Z,237.93
2024-04-18T16:32:04.888Z,271.73
2024-04-18T16:34:31.865Z,258.92
2024-04-18T16:37:09.418Z,246.45
2024-04-18T16:39:40.210Z,239.52
2024-04-18T16:42:07.681Z,224.43
2024-04-18T16:44:34.594Z,231.80
2024-04-18T16:47:01.453Z,219.65
2024-04-18T16:49:28.502Z,212.10
2024-04-18T16:51:55.521Z,225.43
2024-04-18T16:54:22.426Z,209.98
2024-04-18T16:56:49.365Z,200.40
2024-04-18T16:59:16.332Z,207.52
2024-04-18T17:01:43.271Z,226.80
2024-04-18T17:04:10.284Z,222.43
2024-04-18T17:06:45.831Z,216.57
2024-04-18T17:09:20.906Z,238.75
2024-04-18T17:11:48.094Z,212.57
2024-04-18T17:14:15.840Z,193.75
2024-04-18T17:16:42.644Z,206.63
2024-04-18T17:19:09.567Z,211.43
2024-04-18T17:21:36.864Z,235.38
2024-04-18T17:24:04.056Z,231.82
2024-04-18T17:26:31.402Z,207.07
2024-04-18T17:28:58.246Z,216.52
2024-04-18T17:31:25.165Z,195.07
2024-04-18T17:33:52.055Z,192.05
2024-04-18T17:36:19.159Z,192.45
2024-04-18T17:38:50.375Z,195.13
2024-04-18T17:41:17.301Z,194.20
2024-04-18T17:43:47.124Z,201.40
2024-04-18T17:46:17.346Z,195.93
2024-04-18T17:48:45.617Z,200.15
2024-04-18T17:51:12.573Z,202.90
2024-04-18T17:53:39.787Z,190.05
2024-04-18T17:56:06.761Z,187.07
2024-04-18T17:58:33.662Z,194.25
2024-04-18T18:01:00.722Z,191.35
2024-04-18T18:03:27.659Z,194.90
2024-04-18T18:05:55.135Z,201.18
2024-04-18T18:08:22.054Z,227.95
2024-04-18T18:10:48.969Z,209.63
2024-04-18T18:13:18.923Z,194.25
2024-04-18T18:15:46.229Z,208.17
2024-04-18T18:18:17.376Z,251.35
2024-04-18T18:20:44.567Z,262.48
2024-04-18T18:23:14.552Z,247.48
2024-04-18T18:25:43.437Z,279.83
2024-04-18T18:28:10.273Z,238.60
2024-04-18T18:30:39.322Z,234.70
2024-04-18T18:33:06.460Z,232.38
2024-04-18T18:35:33.340Z,235.90
2024-04-18T18:38:00.268Z,216.27
2024-04-18T18:40:27.262Z,222.55
2024-04-18T18:42:54.058Z,216.10
2024-04-18T18:45:20.961Z,212.35
2024-04-18T18:47:47.872Z,223.80
2024-04-18T18:50:14.845Z,204.48
2024-04-18T18:52:44.526Z,213.98
2024-04-18T18:55:11.363Z,195.93
2024-04-18T18:57:38.226Z,226.80
2024-04-18T19:00:05.494Z,190.63
2024-04-18T19:02:32.496Z,197.00
2024-04-18T19:04:59.389Z,175.32
2024-04-18T19:07:46.082Z,179.30
2024-04-18T19:10:13.209Z,187.40
2024-04-18T19:12:40.195Z,172.73
2024-04-18T19:15:07.386Z,168.75
2024-04-18T19:17:37.837Z,161.20
2024-04-18T19:20:05.086Z,192.77
2024-04-18T19:22:32.057Z,205.90
2024-04-18T19:24:58.934Z,159.00
2024-04-18T19:27:25.810Z,192.20
2024-04-18T19:29:52.715Z,154.70
2024-04-18T19:32:20.676Z,151.15
2024-04-18T19:34:47.596Z,153.40
2024-04-18T19:37:14.458Z,154.00
2024-04-18T19:39:41.455Z,164.50
2024-04-18T19:42:08.839Z,170.90
2024-04-18T19:44:36.020Z,180.77
2024-04-18T19:47:04.374Z,152.18
2024-04-18T19:49:35.727Z,150.57
2024-04-18T19:52:06.155Z,141.68
2024-04-18T19:54:52.166Z,142.32
2024-04-18T19:57:25.024Z,146.45
2024-04-18T19:59:53.976Z,146.73
2024-04-18T20:02:21.000Z,148.93
2024-04-18T20:04:51.289Z,155.13
2024-04-18T20:07:18.167Z,162.30
2024-04-18T20:09:45.016Z,152.70
2024-04-18T20:12:11.939Z,151.27
2024-04-18T20:14:38.816Z,169.68
2024-04-18T20:17:05.860Z,182.27
2024-04-18T20:19:32.728Z,181.38
2024-04-18T20:21:59.607Z,191.10
2024-04-18T20:24:28.058Z,231.63
2024-04-18T20:26:56.192Z,207.02
2024-04-18T20:29:23.120Z,190.10
2024-04-18T20:31:49.959Z,177.93
2024-04-18T20:34:16.882Z,169.63
2024-04-18T20:36:43.777Z,173.80
2024-04-18T20:39:10.663Z,168.00
2024-04-18T20:41:37.608Z,174.30
2024-04-18T20:44:04.577Z,154.23
2024-04-18T20:46:31.465Z,157.35
2024-04-18T20:48:58.459Z,179.68
2024-04-18T20:51:25.500Z,160.02
2024-04-18T20:53:52.300Z,161.55
2024-04-18T20:56:19.129Z,167.77
2024-04-18T20:58:46.234Z,194.05
2024-04-18T21:01:13.318Z,155.68
2024-04-18T21:03:40.576Z,179.73
2024-04-18T21:06:07.699Z,192.30
2024-04-18T21:08:34.936Z,203.85
2024-04-18T21:11:02.022Z,199.23
2024-04-18T21:13:29.027Z,192.80
2024-04-18T21:16:02.390Z,191.23
2024-04-18T21:18:29.784Z,168.13
2024-04-18T21:20:57.458Z,175.25
2024-04-18T21:23:24.492Z,179.10
2024-04-18T21:25:51.637Z,185.35
2024-04-18T21:28:18.808Z,176.60
2024-04-18T21:30:45.853Z,186.80
2024-04-18T21:33:12.944Z,171.18
2024-04-18T21:35:39.956Z,168.60
2024-04-18T21:38:06.913Z,176.13
2024-04-18T21:40:34.177Z,164.60
2024-04-18T21:43:04.228Z,165.93
2024-04-18T21:45:32.905Z,178.52
2024-04-18T21:48:00.787Z,181.05
2024-04-18T21:50:27.885Z,177.30
2024-04-18T21:52:54.853Z,188.02
2024-04-18T21:55:21.837Z,187.57
2024-04-18T21:57:52.306Z,201.77
2024-04-18T22:00:19.348Z,220.85
2024-04-18T22:02:52.467Z,229.77
2024-04-18T22:05:19.890Z,220.05
2024-04-18T22:07:46.819Z,212.18
2024-04-18T22:10:13.834Z,216.07
2024-04-18T22:12:41.071Z,197.93
2024-04-18T22:15:08.284Z,203.45
2024-04-18T22:17:35.383Z,239.88
2024-04-18T22:20:02.655Z,242.02
2024-04-18T22:22:29.558Z,233.10
2024-04-18T22:24:56.551Z,222.68
2024-04-18T22:27:23.578Z,215.45
2024-04-18T22:29:50.723Z,207.70
2024-04-18T22:32:17.669Z,204.63
2024-04-18T22:34:47.507Z,222.55
2024-04-18T22:37:16.680Z,242.02
2024-04-18T22:39:43.657Z,236.23
2024-04-18T22:42:11.911Z,242.98
2024-04-18T22:44:40.677Z,219.98
2024-04-18T22:47:11.195Z,224.05
2024-04-18T22:49:38.292Z,218.75
2024-04-18T22:52:05.743Z,214.10
2024-04-18T22:54:32.725Z,203.20
2024-04-18T22:57:00.166Z,199.65
2024-04-18T22:59:27.235Z,199.80
2024-04-18T23:01:54.248Z,194.73
2024-04-18T23:04:21.352Z,192.57
2024-04-18T23:06:48.377Z,191.75
2024-04-18T23:09:15.394Z,211.52
2024-04-18T23:11:42.336Z,199.48
2024-04-18T23:14:09.294Z,202.32
2024-04-18T23:16:36.291Z,199.43
2024-04-18T23:19:03.290Z,179.52
2024-04-18T23:21:30.287Z,193.25
2024-04-18T23:23:57.238Z,192.82
2024-04-18T23:26:25.640Z,187.27
2024-04-18T23:28:52.601Z,215.73
2024-04-18T23:31:19.544Z,204.95
2024-04-18T23:33:46.580Z,199.10
2024-04-18T23:36:14.283Z,199.02
2024-04-18T23:38:41.234Z,208.27
2024-04-18T23:41:08.214Z,225.93
2024-04-18T23:43:35.104Z,227.27
2024-04-18T23:46:02.031Z,223.05
2024-04-18T23:48:29.243Z,227.63
2024-04-18T23:50:56.251Z,218.73
2024-04-18T23:53:23.242Z,228.48
2024-04-18T23:55:50.205Z,233.70
2024-04-18T23:58:17.129Z,239.85
